createdAt,value
2023-01-22T00:00:17.098Z,23.38
2023-01-22T00:02:45.082Z,18.95
2023-01-22T00:05:14.216Z,17.38
2023-01-22T00:07:42.166Z,12.63
2023-01-22T00:10:12.031Z,20.67
2023-01-22T00:12:39.816Z,23.27
2023-01-22T00:15:08.839Z,33.95
2023-01-22T00:17:37.736Z,25.45
2023-01-22T00:20:06.749Z,37.85
2023-01-22T00:22:36.860Z,27.42
2023-01-22T00:25:05.354Z,29.90
2023-01-22T00:27:33.058Z,23.13
2023-01-22T00:30:00.877Z,28.85
2023-01-22T00:32:28.567Z,28.02
2023-01-22T00:34:56.289Z,36.47
2023-01-22T00:37:24.058Z,30.52
2023-01-22T00:39:53.207Z,27.17
2023-01-22T00:42:20.920Z,25.08
2023-01-22T00:44:48.621Z,23.08
2023-01-22T00:47:16.444Z,29.60
2023-01-22T00:49:44.212Z,14.63
2023-01-22T00:52:12.237Z,21.67
2023-01-22T00:54:40.000Z,25.75
2023-01-22T00:57:09.167Z,22.92
2023-01-22T00:59:36.869Z,17.80
2023-01-22T01:02:06.551Z,22.75
2023-01-22T01:04:34.463Z,27.17
2023-01-22T01:07:02.201Z,22.40
2023-01-22T01:09:30.032Z,25.80
2023-01-22T01:11:57.754Z,28.70
2023-01-22T01:14:26.964Z,32.20
2023-01-22T01:16:56.734Z,25.95
2023-01-22T01:19:24.576Z,16.08
2023-01-22T01:21:52.540Z,27.65
2023-01-22T01:24:20.223Z,28.35
2023-01-22T01:26:48.015Z,25.40
2023-01-22T01:29:16.001Z,24.42
2023-01-22T01:31:45.804Z,17.40
2023-01-22T01:34:13.852Z,23.88
2023-01-22T01:36:49.709Z,21.52
2023-01-22T01:39:17.876Z,29.33
2023-01-22T01:41:45.971Z,47.75
2023-01-22T01:44:15.724Z,36.95
2023-01-22T01:46:48.974Z,35.58
2023-01-22T01:49:21.057Z,28.77
2023-01-22T01:51:49.790Z,24.98
2023-01-22T01:54:18.297Z,28.45
2023-01-22T01:56:51.491Z,30.95
2023-01-22T01:59:22.071Z,23.27
2023-01-22T02:01:54.858Z,22.15
2023-01-22T02:04:24.707Z,31.40
2023-01-22T02:06:52.511Z,22.25
2023-01-22T02:09:20.445Z,27.35
2023-01-22T02:11:48.595Z,21.67
2023-01-22T02:14:20.230Z,25.30
2023-01-22T02:16:48.042Z,26.50
2023-01-22T02:19:17.326Z,22.30
2023-01-22T02:21:46.603Z,29.50
2023-01-22T02:24:17.051Z,26.08
2023-01-22T02:26:46.750Z,24.48
2023-01-22T02:29:15.567Z,32.42
2023-01-22T02:31:43.742Z,30.42
2023-01-22T02:34:12.336Z,25.20
2023-01-22T02:36:41.176Z,24.65
2023-01-22T02:39:10.372Z,35.45
2023-01-22T02:41:38.168Z,30.23
2023-01-22T02:44:07.407Z,27.60
2023-01-22T02:46:35.561Z,29.00
2023-01-22T02:49:03.767Z,26.63
2023-01-22T02:51:31.557Z,25.50
2023-01-22T02:53:59.336Z,25.63
2023-01-22T02:56:28.489Z,21.52
2023-01-22T02:58:56.181Z,24.13
2023-01-22T03:01:25.674Z,26.42
2023-01-22T03:03:55.367Z,25.33
2023-01-22T03:06:25.059Z,33.85
2023-01-22T03:08:55.325Z,22.45
2023-01-22T03:11:24.080Z,22.48
2023-01-22T03:14:11.127Z,27.83
2023-01-22T03:16:56.434Z,25.98
2023-01-22T03:19:42.457Z,23.38
2023-01-22T03:22:10.922Z,19.67
2023-01-22T03:24:38.669Z,23.38
2023-01-22T03:27:06.811Z,24.25
2023-01-22T03:29:38.315Z,23.65
2023-01-22T03:32:07.155Z,18.73
2023-01-22T03:34:35.200Z,24.17
2023-01-22T03:37:03.560Z,24.90
2023-01-22T03:39:32.544Z,26.42
2023-01-22T03:42:00.368Z,23.38
2023-01-22T03:44:28.172Z,31.38
2023-01-22T03:46:57.531Z,20.33
2023-01-22T03:49:25.291Z,22.10
2023-01-22T03:51:53.124Z,17.35
2023-01-22T03:54:20.925Z,21.00
2023-01-22T03:56:48.665Z,26.83
2023-01-22T03:59:16.440Z,23.42
2023-01-22T04:01:44.357Z,22.20
2023-01-22T04:04:13.534Z,33.42
2023-01-22T04:06:41.333Z,27.70
2023-01-22T04:09:09.037Z,29.42
2023-01-22T04:11:36.878Z,32.00
2023-01-22T04:14:04.581Z,25.75
2023-01-22T04:16:32.340Z,18.40
2023-01-22T04:19:00.111Z,26.63
2023-01-22T04:21:29.231Z,22.58
2023-01-22T04:23:57.514Z,20.88
2023-01-22T04:26:25.440Z,24.00
2023-01-22T04:28:53.188Z,22.08
2023-01-22T04:31:21.118Z,15.15
2023-01-22T04:33:49.015Z,17.15
2023-01-22T04:36:18.086Z,24.08
2023-01-22T04:38:47.225Z,24.98
2023-01-22T04:41:15.017Z,21.27
2023-01-22T04:43:42.719Z,22.42
2023-01-22T04:46:10.577Z,19.67
2023-01-22T04:48:38.401Z,20.63
2023-01-22T04:51:06.430Z,23.20
2023-01-22T04:53:34.239Z,24.70
2023-01-22T04:56:03.338Z,18.35
2023-01-22T04:58:31.124Z,20.33
2023-01-22T05:00:59.200Z,16.45
2023-01-22T05:03:26.991Z,28.48
2023-01-22T05:05:54.720Z,19.20
2023-01-22T05:08:22.600Z,26.95
2023-01-22T05:10:50.383Z,17.05
2023-01-22T05:13:19.458Z,24.13
2023-01-22T05:15:47.220Z,32.53
2023-01-22T05:18:14.978Z,24.15
2023-01-22T05:20:42.758Z,21.33
2023-01-22T05:23:10.522Z,25.35
2023-01-22T05:25:38.336Z,22.73
2023-01-22T05:28:06.526Z,15.90
2023-01-22T05:30:35.837Z,16.88
2023-01-22T05:33:03.639Z,23.23
2023-01-22T05:35:31.485Z,20.20
2023-01-22T05:37:59.215Z,18.83
2023-01-22T05:40:27.033Z,20.42
2023-01-22T05:42:55.108Z,26.38
2023-01-22T05:45:22.954Z,18.30
2023-01-22T05:47:54.325Z,13.77
2023-01-22T05:50:22.751Z,17.38
2023-01-22T05:52:55.426Z,19.98
2023-01-22T05:55:23.328Z,26.40
2023-01-22T05:57:51.281Z,19.15
2023-01-22T06:00:19.909Z,21.65
2023-01-22T06:02:48.590Z,16.52
2023-01-22T06:05:17.927Z,20.20
2023-01-22T06:07:45.636Z,12.93
2023-01-22T06:10:13.509Z,17.15
2023-01-22T06:12:41.234Z,17.73
2023-01-22T06:15:10.333Z,18.25
2023-01-22T06:17:38.094Z,17.50
2023-01-22T06:20:06.716Z,16.02
2023-01-22T06:22:35.868Z,15.65
2023-01-22T06:25:03.910Z,16.73
2023-01-22T06:27:31.656Z,16.73
2023-01-22T06:29:59.434Z,17.48
2023-01-22T06:32:27.328Z,19.15
2023-01-22T06:34:55.060Z,16.45
2023-01-22T06:37:22.952Z,16.05
2023-01-22T06:39:52.214Z,26.20
2023-01-22T06:42:20.039Z,25.02
2023-01-22T06:44:47.880Z,17.42
2023-01-22T06:47:15.669Z,22.27
2023-01-22T06:49:43.368Z,14.98
2023-01-22T06:52:11.116Z,22.05
2023-01-22T06:54:38.887Z,20.50
2023-01-22T06:57:08.101Z,14.10
2023-01-22T06:59:37.180Z,48.53
2023-01-22T07:02:05.253Z,16.45
2023-01-22T07:04:33.105Z,18.48
2023-01-22T07:07:00.802Z,17.85
2023-01-22T07:09:28.479Z,16.13
2023-01-22T07:11:57.415Z,21.05
2023-01-22T07:14:36.576Z,17.60
2023-01-22T07:17:05.137Z,16.98
2023-01-22T07:19:33.127Z,18.00
2023-01-22T07:22:01.088Z,23.23
2023-01-22T07:24:28.793Z,21.95
2023-01-22T07:26:56.580Z,16.83
2023-01-22T07:29:24.350Z,11.35
2023-01-22T07:31:53.503Z,24.48
2023-01-22T07:34:21.468Z,17.42
2023-01-22T07:36:49.283Z,15.85
2023-01-22T07:39:17.124Z,19.67
2023-01-22T07:41:44.982Z,10.40
2023-01-22T07:44:13.243Z,15.77
2023-01-22T07:46:41.150Z,19.67
2023-01-22T07:49:11.760Z,18.40
2023-01-22T07:51:39.573Z,19.65
2023-01-22T07:54:07.327Z,19.80
2023-01-22T07:56:35.073Z,19.23
2023-01-22T07:59:02.843Z,16.80
2023-01-22T08:01:30.660Z,18.23
2023-01-22T08:03:58.439Z,15.43
2023-01-22T08:06:27.621Z,15.07
2023-01-22T08:08:55.321Z,28.88
2023-01-22T08:11:23.127Z,27.33
2023-01-22T08:13:50.845Z,32.67
2023-01-22T08:16:18.698Z,16.38
2023-01-22T08:18:46.479Z,23.50
2023-01-22T08:21:14.598Z,27.48
2023-01-22T08:23:47.546Z,31.95
2023-01-22T08:26:16.695Z,36.03
2023-01-22T08:28:44.524Z,33.53
2023-01-22T08:31:26.314Z,24.98
2023-01-22T08:33:55.442Z,23.65
2023-01-22T08:36:23.271Z,25.00
2023-01-22T08:38:52.390Z,23.85
2023-01-22T08:41:20.163Z,27.98
2023-01-22T08:43:47.855Z,39.28
2023-01-22T08:46:15.794Z,25.73
2023-01-22T08:48:44.352Z,44.78
2023-01-22T08:51:12.483Z,38.33
2023-01-22T08:53:40.315Z,42.67
2023-01-22T08:56:09.758Z,28.30
2023-01-22T08:58:37.479Z,35.33
2023-01-22T09:01:05.578Z,35.28
2023-01-22T09:03:33.317Z,30.70
2023-01-22T09:06:01.107Z,34.30
2023-01-22T09:08:28.871Z,30.88
2023-01-22T09:10:56.650Z,34.88
2023-01-22T09:13:25.790Z,46.78
2023-01-22T09:15:58.519Z,33.08
2023-01-22T09:18:26.815Z,32.20
2023-01-22T09:20:54.593Z,19.35
2023-01-22T09:23:22.601Z,21.55
2023-01-22T09:25:50.412Z,22.08
2023-01-22T09:28:18.156Z,26.10
2023-01-22T09:30:47.305Z,21.77
2023-01-22T09:33:15.132Z,25.10
2023-01-22T09:35:42.864Z,21.00
2023-01-22T09:38:14.073Z,28.17
2023-01-22T09:40:46.524Z,16.90
2023-01-22T09:43:25.780Z,20.65
2023-01-22T09:45:57.978Z,23.95
2023-01-22T09:48:33.058Z,14.90
2023-01-22T09:51:01.097Z,24.33
2023-01-22T09:53:30.828Z,26.63
2023-01-22T09:55:59.225Z,19.52
2023-01-22T09:58:27.978Z,13.98
2023-01-22T10:01:00.542Z,18.45
2023-01-22T10:03:33.499Z,16.42
2023-01-22T10:06:05.629Z,24.37
2023-01-22T10:08:35.667Z,16.35
2023-01-22T10:11:04.140Z,13.77
2023-01-22T10:13:34.940Z,15.23
2023-01-22T10:16:04.764Z,16.27
2023-01-22T10:18:40.870Z,18.42
2023-01-22T10:21:18.712Z,14.48
2023-01-22T10:23:47.031Z,9.05
2023-01-22T10:26:18.727Z,12.85
2023-01-22T10:28:49.079Z,21.10
2023-01-22T10:31:26.270Z,16.67
2023-01-22T10:33:59.452Z,17.15
2023-01-22T10:36:27.518Z,16.60
2023-01-22T10:39:12.153Z,15.85
2023-01-22T10:41:40.955Z,14.82
2023-01-22T10:44:10.441Z,16.00
2023-01-22T10:46:39.669Z,14.10
2023-01-22T10:49:08.426Z,14.55
2023-01-22T10:51:38.756Z,18.17
2023-01-22T10:54:20.819Z,16.00
2023-01-22T10:56:49.755Z,19.15
2023-01-22T10:59:22.998Z,18.73
2023-01-22T11:01:58.448Z,19.27
2023-01-22T11:04:28.401Z,18.45
2023-01-22T11:06:59.075Z,16.67
2023-01-22T11:09:33.782Z,17.75
2023-01-22T11:12:10.758Z,24.88
2023-01-22T11:14:40.489Z,18.35
2023-01-22T11:17:18.996Z,18.85
2023-01-22T11:19:55.162Z,21.67
2023-01-22T11:22:27.716Z,15.38
2023-01-22T11:24:55.499Z,20.67
2023-01-22T11:27:45.871Z,14.35
2023-01-22T11:30:38.555Z,17.27
2023-01-22T11:33:21.053Z,15.20
2023-01-22T11:35:54.744Z,14.23
2023-01-22T11:38:30.928Z,24.38
2023-01-22T11:41:14.349Z,15.23
2023-01-22T11:43:56.674Z,14.02
2023-01-22T11:46:39.006Z,17.27
2023-01-22T11:49:19.316Z,20.33
2023-01-22T11:51:56.561Z,19.20
2023-01-22T11:54:35.189Z,17.73
2023-01-22T11:57:18.041Z,19.65
2023-01-22T12:00:04.515Z,15.23
2023-01-22T12:02:50.507Z,15.95
2023-01-22T12:05:33.197Z,15.45
2023-01-22T12:08:14.700Z,12.35
2023-01-22T12:10:57.494Z,17.50
2023-01-22T12:13:43.822Z,13.88
2023-01-22T12:16:22.358Z,21.40
2023-01-22T12:19:12.994Z,17.05
2023-01-22T12:21:54.118Z,20.58
2023-01-22T12:24:27.919Z,23.55
2023-01-22T12:27:02.434Z,12.73
2023-01-22T12:29:34.009Z,18.98
2023-01-22T12:32:08.959Z,10.00
2023-01-22T12:34:42.888Z,16.02
2023-01-22T12:37:17.033Z,15.02
2023-01-22T12:39:51.711Z,14.77
2023-01-22T12:42:31.982Z,12.88
2023-01-22T12:45:08.212Z,17.75
2023-01-22T12:47:42.025Z,17.20
2023-01-22T12:50:18.815Z,13.45
2023-01-22T12:52:59.540Z,14.27
2023-01-22T12:55:34.840Z,13.13
2023-01-22T12:58:03.476Z,14.90
2023-01-22T13:00:35.502Z,12.75
2023-01-22T13:03:05.127Z,19.13
2023-01-22T13:05:42.485Z,12.68
2023-01-22T13:08:26.341Z,14.68
2023-01-22T13:13:27.697Z,12.80
2023-01-22T13:15:58.649Z,17.58
2023-01-22T13:18:29.163Z,12.55
2023-01-22T13:21:02.798Z,16.48
2023-01-22T13:23:34.269Z,18.33
2023-01-22T13:26:02.960Z,13.43
2023-01-22T13:28:31.431Z,19.55
2023-01-22T13:31:01.982Z,14.10
2023-01-22T13:33:30.147Z,16.15
2023-01-22T13:35:59.678Z,18.38
2023-01-22T13:38:29.656Z,14.07
2023-01-22T13:41:00.948Z,14.95
2023-01-22T13:43:29.227Z,9.93
2023-01-22T13:45:58.151Z,12.55
2023-01-22T13:48:27.662Z,16.50
2023-01-22T13:50:58.573Z,13.98
2023-01-22T13:53:31.751Z,12.15
2023-01-22T13:56:01.487Z,12.68
2023-01-22T13:58:47.149Z,14.27
2023-01-22T14:01:28.067Z,13.55
2023-01-22T14:04:00.298Z,18.25
2023-01-22T14:06:28.758Z,15.75
2023-01-22T14:08:58.775Z,13.18
2023-01-22T14:11:39.649Z,14.82
2023-01-22T14:14:17.419Z,12.88
2023-01-22T14:16:45.391Z,11.32
2023-01-22T14:19:13.501Z,11.38
2023-01-22T14:21:41.221Z,16.73
2023-01-22T14:24:09.703Z,10.70
2023-01-22T14:26:38.909Z,12.80
2023-01-22T14:29:06.755Z,15.50
2023-01-22T14:31:34.478Z,15.27
2023-01-22T14:34:02.316Z,12.75
2023-01-22T14:36:30.167Z,11.50
2023-01-22T14:38:58.878Z,11.13
2023-01-22T14:41:26.729Z,11.55
2023-01-22T14:43:56.772Z,13.10
2023-01-22T14:46:24.600Z,16.88
2023-01-22T14:48:52.410Z,10.25
2023-01-22T14:51:20.198Z,12.80
2023-01-22T14:53:47.923Z,19.42
2023-01-22T14:56:15.678Z,10.10
2023-01-22T14:58:43.483Z,14.73
2023-01-22T15:01:20.544Z,15.20
2023-01-22T15:03:48.465Z,12.18
2023-01-22T15:06:16.250Z,14.95
2023-01-22T15:08:44.066Z,15.43
2023-01-22T15:11:11.947Z,13.40
2023-01-22T15:13:39.674Z,12.77
2023-01-22T15:16:09.144Z,12.55
2023-01-22T15:18:39.654Z,15.13
2023-01-22T15:21:08.172Z,11.23
2023-01-22T15:23:35.996Z,10.60
2023-01-22T15:26:06.003Z,10.73
2023-01-22T15:28:34.003Z,14.13
2023-01-22T15:31:07.575Z,12.10
2023-01-22T15:36:05.898Z,12.23
2023-01-22T15:38:33.671Z,11.65
2023-01-22T15:41:07.050Z,13.77
2023-01-22T15:43:34.906Z,10.73
2023-01-22T15:46:02.805Z,9.82
2023-01-22T15:48:30.569Z,13.27
2023-01-22T15:51:09.040Z,12.45
2023-01-22T15:53:36.926Z,13.27
2023-01-22T15:56:06.389Z,12.85
2023-01-22T15:58:34.876Z,12.75
2023-01-22T16:01:03.010Z,15.52
2023-01-22T16:03:31.151Z,10.40
2023-01-22T16:06:10.524Z,18.65
2023-01-22T16:08:38.353Z,17.70
2023-01-22T16:11:06.822Z,12.40
2023-01-22T16:13:34.909Z,13.15
2023-01-22T16:16:04.784Z,13.30
2023-01-22T16:18:33.327Z,12.57
2023-01-22T16:21:01.905Z,10.88
2023-01-22T16:23:31.631Z,9.32
2023-01-22T16:26:01.122Z,8.65
2023-01-22T16:28:28.947Z,15.25
2023-01-22T16:30:56.852Z,12.23
2023-01-22T16:33:28.823Z,11.30
2023-01-22T16:36:00.264Z,16.33
2023-01-22T16:38:28.665Z,16.48
2023-01-22T16:41:08.869Z,13.35
2023-01-22T16:43:37.160Z,14.23
2023-01-22T16:46:05.246Z,16.88
2023-01-22T16:48:33.147Z,20.33
2023-01-22T16:51:01.027Z,28.42
2023-01-22T16:53:28.854Z,25.15
2023-01-22T16:55:58.056Z,39.40
2023-01-22T16:58:25.773Z,33.88
2023-01-22T17:00:53.650Z,36.67
2023-01-22T17:03:21.369Z,41.22
2023-01-22T17:05:49.937Z,21.15
2023-01-22T17:08:17.640Z,16.10
2023-01-22T17:10:45.362Z,17.30
2023-01-22T17:13:14.521Z,17.30
2023-01-22T17:15:43.707Z,12.15
2023-01-22T17:18:11.460Z,13.55
2023-01-22T17:20:39.313Z,17.00
2023-01-22T17:23:07.427Z,31.95
2023-01-22T17:25:35.205Z,20.30
2023-01-22T17:28:02.984Z,23.77
2023-01-22T17:30:32.126Z,30.35
2023-01-22T17:32:59.866Z,30.52
2023-01-22T17:35:27.671Z,29.55
2023-01-22T17:37:55.397Z,31.20
2023-01-22T17:40:23.095Z,29.90
2023-01-22T17:42:50.816Z,22.13
2023-01-22T17:45:19.021Z,25.98
2023-01-22T17:47:48.369Z,34.72
2023-01-22T17:50:16.945Z,51.97
2023-01-22T17:52:44.772Z,60.85
2023-01-22T17:55:12.658Z,58.40
2023-01-22T17:57:41.454Z,54.28
2023-01-22T18:00:11.095Z,70.25
2023-01-22T18:02:38.932Z,63.85
2023-01-22T18:05:10.399Z,82.75
2023-01-22T18:07:38.301Z,74.82
2023-01-22T18:10:06.593Z,73.43
2023-01-22T18:12:34.434Z,65.60
2023-01-22T18:15:02.184Z,32.17
2023-01-22T18:17:29.936Z,26.90
2023-01-22T18:19:57.838Z,23.85
2023-01-22T18:22:26.969Z,29.65
2023-01-22T18:24:54.826Z,22.02
2023-01-22T18:27:22.574Z,18.95
2023-01-22T18:29:50.411Z,12.57
2023-01-22T18:32:18.644Z,19.58
2023-01-22T18:34:46.611Z,17.38
2023-01-22T18:37:14.327Z,12.82
2023-01-22T18:39:43.574Z,17.90
2023-01-22T18:42:11.378Z,22.65
2023-01-22T18:44:39.853Z,20.58
2023-01-22T18:47:11.068Z,22.20
2023-01-22T18:49:38.999Z,17.27
2023-01-22T18:52:06.819Z,18.40
2023-01-22T18:54:34.561Z,23.55
2023-01-22T18:57:03.652Z,46.33
2023-01-22T18:59:31.535Z,34.92
2023-01-22T19:02:00.033Z,30.90
2023-01-22T19:04:28.985Z,26.60
2023-01-22T19:06:57.278Z,26.08
2023-01-22T19:09:26.837Z,29.58
2023-01-22T19:11:55.608Z,34.13
2023-01-22T19:14:25.177Z,23.15
2023-01-22T19:16:54.211Z,33.20
2023-01-22T19:19:22.901Z,29.20
2023-01-22T19:21:54.725Z,35.45
2023-01-22T19:24:24.920Z,36.00
2023-01-22T19:26:54.700Z,32.25
2023-01-22T19:29:25.317Z,27.73
2023-01-22T19:31:54.473Z,33.42
2023-01-22T19:34:24.688Z,37.22
2023-01-22T19:36:54.389Z,31.85
2023-01-22T19:39:22.461Z,20.90
2023-01-22T19:41:50.305Z,23.50
2023-01-22T19:44:18.438Z,27.92
2023-01-22T19:46:47.852Z,25.20
2023-01-22T19:49:15.637Z,20.75
2023-01-22T19:51:43.561Z,25.40
2023-01-22T19:54:12.018Z,19.00
2023-01-22T19:56:42.327Z,25.40
2023-01-22T19:59:12.964Z,20.15
2023-01-22T20:01:40.792Z,21.67
2023-01-22T20:04:14.343Z,25.85
2023-01-22T20:09:13.268Z,21.48
2023-01-22T20:11:41.179Z,23.10
2023-01-22T20:14:08.947Z,19.90
2023-01-22T20:16:36.770Z,17.83
2023-01-22T20:19:04.886Z,16.27
2023-01-22T20:21:34.133Z,28.73
2023-01-22T20:24:01.917Z,23.13
2023-01-22T20:26:29.631Z,15.20
2023-01-22T20:28:57.384Z,16.95
2023-01-22T20:31:25.503Z,19.63
2023-01-22T20:33:55.535Z,18.45
2023-01-22T20:36:24.508Z,22.27
2023-01-22T20:38:54.559Z,19.60
2023-01-22T20:41:23.940Z,25.90
2023-01-22T20:43:51.782Z,27.65
2023-01-22T20:46:21.376Z,24.73
2023-01-22T20:48:50.369Z,26.88
2023-01-22T20:51:20.844Z,32.20
2023-01-22T20:53:50.506Z,46.30
2023-01-22T20:56:22.626Z,62.53
2023-01-22T20:58:55.285Z,32.42
2023-01-22T21:01:23.085Z,36.80
2023-01-22T21:03:50.960Z,25.75
2023-01-22T21:06:20.862Z,24.92
2023-01-22T21:08:51.352Z,30.27
2023-01-22T21:11:22.067Z,22.02
2023-01-22T21:13:51.643Z,17.85
2023-01-22T21:16:23.067Z,12.18
2023-01-22T21:18:50.906Z,14.52
2023-01-22T21:21:20.077Z,19.90
2023-01-22T21:23:48.936Z,13.48
2023-01-22T21:26:19.171Z,17.15
2023-01-22T21:28:49.283Z,21.30
2023-01-22T21:31:20.063Z,18.73
2023-01-22T21:33:49.449Z,16.77
2023-01-22T21:36:18.453Z,29.38
2023-01-22T21:38:47.683Z,23.20
2023-01-22T21:41:18.251Z,22.25
2023-01-22T21:44:06.068Z,24.75
2023-01-22T21:46:37.256Z,27.35
2023-01-22T21:49:16.284Z,30.88
2023-01-22T21:51:46.293Z,37.97
2023-01-22T21:54:15.186Z,34.38
2023-01-22T21:56:43.102Z,35.03
2023-01-22T21:59:12.561Z,35.28
2023-01-22T22:01:40.691Z,44.05
2023-01-22T22:04:09.774Z,45.50
2023-01-22T22:06:38.034Z,39.78
2023-01-22T22:09:07.921Z,35.83
2023-01-22T22:11:35.771Z,37.15
2023-01-22T22:14:05.662Z,31.95
2023-01-22T22:16:35.207Z,31.08
2023-01-22T22:19:03.007Z,26.15
2023-01-22T22:21:31.774Z,26.20
2023-01-22T22:23:59.546Z,34.63
2023-01-22T22:26:27.553Z,32.70
2023-01-22T22:28:55.718Z,47.47
2023-01-22T22:31:24.052Z,66.60
2023-01-22T22:33:55.585Z,46.17
2023-01-22T22:36:25.208Z,56.75
2023-01-22T22:38:53.197Z,43.85
2023-01-22T22:41:22.758Z,25.83
2023-01-22T22:43:52.623Z,36.65
2023-01-22T22:46:22.900Z,47.13
2023-01-22T22:48:53.278Z,55.10
2023-01-22T22:51:23.573Z,32.15
2023-01-22T22:53:54.360Z,37.83
2023-01-22T22:56:22.485Z,30.02
2023-01-22T22:58:50.257Z,40.50
2023-01-22T23:01:19.831Z,62.08
2023-01-22T23:03:47.844Z,33.30
2023-01-22T23:06:21.253Z,38.75
2023-01-22T23:08:52.370Z,48.63
2023-01-22T23:11:22.568Z,35.60
2023-01-22T23:13:50.540Z,32.13
2023-01-22T23:16:20.659Z,34.90
2023-01-22T23:18:50.001Z,30.60
2023-01-22T23:21:21.193Z,32.28
2023-01-22T23:23:49.119Z,36.63
2023-01-22T23:26:19.561Z,28.63
2023-01-22T23:28:48.474Z,28.40
2023-01-22T23:31:17.976Z,22.33
2023-01-22T23:33:45.741Z,30.58
2023-01-22T23:36:15.521Z,22.02
2023-01-22T23:38:45.796Z,35.17
2023-01-22T23:41:16.767Z,30.48
2023-01-22T23:43:44.826Z,33.53
2023-01-22T23:46:15.256Z,36.20
2023-01-22T23:48:43.509Z,37.72
2023-01-22T23:51:13.354Z,27.67
2023-01-22T23:53:43.059Z,29.40
2023-01-22T23:56:13.347Z,36.55
2023-01-22T23:58:41.817Z,30.20
